sensor_id;sensor_type;location;lat;lon;timestamp;P1;durP1;ratioP1;P2;durP2;ratioP2
35326;SDS011;21436;52.348;20.928;2022-09-23T00:01:26;18.98;;;9.40;;
35326;SDS011;21436;52.348;20.928;2022-09-23T00:03:56;17.00;;;10.02;;
35326;SDS011;21436;52.348;20.928;2022-09-23T00:06:26;15.05;;;8.35;;
35326;SDS011;21436;52.348;20.928;2022-09-23T00:08:55;17.27;;;8.90;;
35326;SDS011;21436;52.348;20.928;2022-09-23T00:11:25;15.18;;;9.15;;
35326;SDS011;21436;52.348;20.928;2022-09-23T00:13:56;15.27;;;8.68;;
35326;SDS011;21436;52.348;20.928;2022-09-23T00:16:30;16.25;;;9.00;;
35326;SDS011;21436;52.348;20.928;2022-09-23T00:19:01;17.98;;;9.15;;
35326;SDS011;21436;52.348;20.928;2022-09-23T00:21:30;17.13;;;9.27;;
35326;SDS011;21436;52.348;20.928;2022-09-23T00:23:58;16.25;;;8.60;;
35326;SDS011;21436;52.348;20.928;2022-09-23T00:26:27;16.63;;;8.70;;
35326;SDS011;21436;52.348;20.928;2022-09-23T00:28:55;17.67;;;9.48;;
35326;SDS011;21436;52.348;20.928;2022-09-23T00:31:24;16.88;;;9.30;;
35326;SDS011;21436;52.348;20.928;2022-09-23T00:33:54;15.27;;;8.82;;
35326;SDS011;21436;52.348;20.928;2022-09-23T00:36:23;16.27;;;9.45;;
35326;SDS011;21436;52.348;20.928;2022-09-23T00:38:52;18.25;;;9.15;;
35326;SDS011;21436;52.348;20.928;2022-09-23T00:41:21;18.42;;;9.50;;
35326;SDS011;21436;52.348;20.928;2022-09-23T00:43:52;16.88;;;8.95;;
35326;SDS011;21436;52.348;20.928;2022-09-23T00:46:40;19.67;;;9.90;;
35326;SDS011;21436;52.348;20.928;2022-09-23T00:51:59;14.50;;;8.73;;
35326;SDS011;21436;52.348;20.928;2022-09-23T00:54:32;14.65;;;9.07;;
35326;SDS011;21436;52.348;20.928;2022-09-23T00:57:00;14.50;;;8.60;;
35326;SDS011;21436;52.348;20.928;2022-09-23T00:59:31;16.38;;;9.63;;
35326;SDS011;21436;52.348;20.928;2022-09-23T01:01:59;22.13;;;11.43;;
35326;SDS011;21436;52.348;20.928;2022-09-23T01:04:29;17.95;;;10.32;;
35326;SDS011;21436;52.348;20.928;2022-09-23T01:07:10;18.73;;;10.30;;
35326;SDS011;21436;52.348;20.928;2022-09-23T01:09:38;20.15;;;11.02;;
35326;SDS011;21436;52.348;20.928;2022-09-23T01:15:16;21.02;;;11.13;;
35326;SDS011;21436;52.348;20.928;2022-09-23T01:26:13;19.50;;;10.73;;
35326;SDS011;21436;52.348;20.928;2022-09-23T01:31:50;18.77;;;10.40;;
35326;SDS011;21436;52.348;20.928;2022-09-23T01:37:25;20.77;;;12.90;;
35326;SDS011;21436;52.348;20.928;2022-09-23T01:40:06;18.70;;;10.38;;
35326;SDS011;21436;52.348;20.928;2022-09-23T01:42:40;16.67;;;9.70;;
35326;SDS011;21436;52.348;20.928;2022-09-23T01:45:17;17.42;;;10.43;;
35326;SDS011;21436;52.348;20.928;2022-09-23T01:48:04;19.67;;;9.82;;
35326;SDS011;21436;52.348;20.928;2022-09-23T01:50:37;22.13;;;11.93;;
35326;SDS011;21436;52.348;20.928;2022-09-23T01:53:48;20.77;;;9.45;;
35326;SDS011;21436;52.348;20.928;2022-09-23T01:56:46;18.20;;;10.38;;
35326;SDS011;21436;52.348;20.928;2022-09-23T02:04:48;18.40;;;9.85;;
35326;SDS011;21436;52.348;20.928;2022-09-23T02:10:12;17.33;;;10.25;;
35326;SDS011;21436;52.348;20.928;2022-09-23T02:12:45;18.90;;;10.57;;
35326;SDS011;21436;52.348;20.928;2022-09-23T02:15:18;21.23;;;9.52;;
35326;SDS011;21436;52.348;20.928;2022-09-23T02:17:53;16.75;;;9.73;;
35326;SDS011;21436;52.348;20.928;2022-09-23T02:20:29;17.23;;;10.07;;
35326;SDS011;21436;52.348;20.928;2022-09-23T02:25:38;23.75;;;11.98;;
35326;SDS011;21436;52.348;20.928;2022-09-23T02:28:20;19.88;;;11.68;;
35326;SDS011;21436;52.348;20.928;2022-09-23T02:31:04;18.30;;;10.85;;
35326;SDS011;21436;52.348;20.928;2022-09-23T02:33:40;19.30;;;10.60;;
35326;SDS011;21436;52.348;20.928;2022-09-23T02:39:12;17.02;;;9.95;;
35326;SDS011;21436;52.348;20.928;2022-09-23T02:44:30;16.73;;;9.18;;
35326;SDS011;21436;52.348;20.928;2022-09-23T02:46:59;16.00;;;10.10;;
35326;SDS011;21436;52.348;20.928;2022-09-23T02:49:28;20.35;;;9.90;;
35326;SDS011;21436;52.348;20.928;2022-09-23T02:52:00;18.08;;;10.07;;
35326;SDS011;21436;52.348;20.928;2022-09-23T02:54:34;24.38;;;12.27;;
35326;SDS011;21436;52.348;20.928;2022-09-23T02:57:04;31.67;;;15.23;;
35326;SDS011;21436;52.348;20.928;2022-09-23T02:59:33;21.05;;;11.48;;
35326;SDS011;21436;52.348;20.928;2022-09-23T03:10:57;21.30;;;11.57;;
35326;SDS011;21436;52.348;20.928;2022-09-23T03:13:46;23.67;;;12.93;;
35326;SDS011;21436;52.348;20.928;2022-09-23T03:24:46;30.50;;;17.25;;
35326;SDS011;21436;52.348;20.928;2022-09-23T03:27:23;23.75;;;13.40;;
35326;SDS011;21436;52.348;20.928;2022-09-23T03:32:22;20.08;;;10.20;;
35326;SDS011;21436;52.348;20.928;2022-09-23T03:34:56;22.20;;;11.68;;
35326;SDS011;21436;52.348;20.928;2022-09-23T03:37:29;18.80;;;10.20;;
35326;SDS011;21436;52.348;20.928;2022-09-23T03:40:18;21.60;;;11.55;;
35326;SDS011;21436;52.348;20.928;2022-09-23T03:42:49;27.73;;;13.98;;
35326;SDS011;21436;52.348;20.928;2022-09-23T03:45:19;21.67;;;12.15;;
35326;SDS011;21436;52.348;20.928;2022-09-23T03:47:49;20.42;;;11.45;;
35326;SDS011;21436;52.348;20.928;2022-09-23T03:50:17;17.38;;;10.93;;
35326;SDS011;21436;52.348;20.928;2022-09-23T03:52:46;23.98;;;12.25;;
35326;SDS011;21436;52.348;20.928;2022-09-23T03:55:17;23.95;;;12.65;;
35326;SDS011;21436;52.348;20.928;2022-09-23T03:57:46;18.33;;;10.30;;
35326;SDS011;21436;52.348;20.928;2022-09-23T04:00:14;20.63;;;9.50;;
35326;SDS011;21436;52.348;20.928;2022-09-23T04:02:43;17.25;;;9.90;;
35326;SDS011;21436;52.348;20.928;2022-09-23T04:05:12;22.27;;;12.60;;
35326;SDS011;21436;52.348;20.928;2022-09-23T04:07:41;25.65;;;13.38;;
35326;SDS011;21436;52.348;20.928;2022-09-23T04:10:09;22.50;;;12.80;;
35326;SDS011;21436;52.348;20.928;2022-09-23T04:12:38;28.27;;;13.20;;
35326;SDS011;21436;52.348;20.928;2022-09-23T04:15:06;25.90;;;12.90;;
35326;SDS011;21436;52.348;20.928;2022-09-23T04:17:35;21.88;;;12.55;;
35326;SDS011;21436;52.348;20.928;2022-09-23T04:20:04;23.83;;;12.95;;
35326;SDS011;21436;52.348;20.928;2022-09-23T04:22:34;25.80;;;13.25;;
35326;SDS011;21436;52.348;20.928;2022-09-23T04:25:02;28.17;;;14.18;;
35326;SDS011;21436;52.348;20.928;2022-09-23T04:27:30;25.70;;;13.40;;
35326;SDS011;21436;52.348;20.928;2022-09-23T04:30:04;27.10;;;13.70;;
35326;SDS011;21436;52.348;20.928;2022-09-23T04:32:35;32.47;;;12.88;;
35326;SDS011;21436;52.348;20.928;2022-09-23T04:35:03;28.60;;;13.63;;
35326;SDS011;21436;52.348;20.928;2022-09-23T04:37:33;28.23;;;14.18;;
35326;SDS011;21436;52.348;20.928;2022-09-23T04:40:01;24.48;;;13.20;;
35326;SDS011;21436;52.348;20.928;2022-09-23T04:42:30;27.40;;;14.48;;
35326;SDS011;21436;52.348;20.928;2022-09-23T04:44:58;30.50;;;14.70;;
35326;SDS011;21436;52.348;20.928;2022-09-23T04:47:29;31.35;;;16.38;;
35326;SDS011;21436;52.348;20.928;2022-09-23T04:49:58;41.95;;;18.98;;
35326;SDS011;21436;52.348;20.928;2022-09-23T04:52:28;30.15;;;16.23;;
35326;SDS011;21436;52.348;20.928;2022-09-23T04:54:57;34.33;;;16.95;;
35326;SDS011;21436;52.348;20.928;2022-09-23T04:57:26;22.70;;;13.32;;
35326;SDS011;21436;52.348;20.928;2022-09-23T04:59:54;18.85;;;12.52;;
35326;SDS011;21436;52.348;20.928;2022-09-23T05:02:24;14.95;;;9.60;;
35326;SDS011;21436;52.348;20.928;2022-09-23T05:04:53;14.30;;;9.35;;
35326;SDS011;21436;52.348;20.928;2022-09-23T05:07:21;16.17;;;8.93;;
35326;SDS011;21436;52.348;20.928;2022-09-23T05:09:50;16.88;;;10.13;;
35326;SDS011;21436;52.348;20.928;2022-09-23T05:12:19;16.52;;;9.52;;
35326;SDS011;21436;52.348;20.928;2022-09-23T05:14:47;14.43;;;9.88;;
35326;SDS011;21436;52.348;20.928;2022-09-23T05:17:15;15.57;;;9.88;;
35326;SDS011;21436;52.348;20.928;2022-09-23T05:19:43;14.55;;;9.68;;
35326;SDS011;21436;52.348;20.928;2022-09-23T05:22:12;16.98;;;9.35;;
35326;SDS011;21436;52.348;20.928;2022-09-23T05:24:40;17.08;;;9.60;;
35326;SDS011;21436;52.348;20.928;2022-09-23T05:27:08;17.80;;;10.95;;
35326;SDS011;21436;52.348;20.928;2022-09-23T05:29:37;19.60;;;11.65;;
35326;SDS011;21436;52.348;20.928;2022-09-23T05:32:06;20.02;;;11.75;;
35326;SDS011;21436;52.348;20.928;2022-09-23T05:34:34;34.50;;;11.95;;
35326;SDS011;21436;52.348;20.928;2022-09-23T05:37:03;29.10;;;12.32;;
35326;SDS011;21436;52.348;20.928;2022-09-23T05:39:31;24.08;;;12.02;;
35326;SDS011;21436;52.348;20.928;2022-09-23T05:42:00;20.80;;;12.20;;
35326;SDS011;21436;52.348;20.928;2022-09-23T05:44:28;22.80;;;12.13;;
35326;SDS011;21436;52.348;20.928;2022-09-23T05:46:57;28.38;;;13.15;;
35326;SDS011;21436;52.348;20.928;2022-09-23T05:49:25;25.45;;;13.32;;
35326;SDS011;21436;52.348;20.928;2022-09-23T05:52:13;27.80;;;13.77;;
35326;SDS011;21436;52.348;20.928;2022-09-23T05:54:43;28.35;;;13.88;;
35326;SDS011;21436;52.348;20.928;2022-09-23T05:57:11;31.20;;;15.40;;
35326;SDS011;21436;52.348;20.928;2022-09-23T05:59:40;32.92;;;15.05;;
35326;SDS011;21436;52.348;20.928;2022-09-23T06:02:14;22.83;;;12.93;;
35326;SDS011;21436;52.348;20.928;2022-09-23T06:08:12;18.92;;;10.10;;
35326;SDS011;21436;52.348;20.928;2022-09-23T06:10:42;16.95;;;9.65;;
35326;SDS011;21436;52.348;20.928;2022-09-23T06:13:11;15.95;;;9.45;;
35326;SDS011;21436;52.348;20.928;2022-09-23T06:15:39;15.85;;;9.25;;
35326;SDS011;21436;52.348;20.928;2022-09-23T06:18:10;11.50;;;8.38;;
35326;SDS011;21436;52.348;20.928;2022-09-23T06:20:38;13.23;;;8.73;;
35326;SDS011;21436;52.348;20.928;2022-09-23T06:23:08;17.45;;;8.45;;
35326;SDS011;21436;52.348;20.928;2022-09-23T06:25:38;11.65;;;8.57;;
35326;SDS011;21436;52.348;20.928;2022-09-23T06:28:06;16.38;;;8.73;;
35326;SDS011;21436;52.348;20.928;2022-09-23T06:30:39;12.68;;;8.45;;
35326;SDS011;21436;52.348;20.928;2022-09-23T06:33:11;13.93;;;8.13;;
35326;SDS011;21436;52.348;20.928;2022-09-23T06:35:42;12.85;;;8.35;;
35326;SDS011;21436;52.348;20.928;2022-09-23T06:38:25;15.13;;;8.43;;
35326;SDS011;21436;52.348;20.928;2022-09-23T06:40:54;15.40;;;8.35;;
35326;SDS011;21436;52.348;20.928;2022-09-23T06:43:24;13.95;;;7.93;;
35326;SDS011;21436;52.348;20.928;2022-09-23T06:45:53;11.57;;;7.65;;
35326;SDS011;21436;52.348;20.928;2022-09-23T06:48:24;11.73;;;8.15;;
35326;SDS011;21436;52.348;20.928;2022-09-23T06:50:53;10.68;;;7.15;;
35326;SDS011;21436;52.348;20.928;2022-09-23T06:53:25;12.40;;;7.32;;
35326;SDS011;21436;52.348;20.928;2022-09-23T06:55:57;11.30;;;6.97;;
35326;SDS011;21436;52.348;20.928;2022-09-23T06:58:30;11.98;;;7.10;;
35326;SDS011;21436;52.348;20.928;2022-09-23T07:00:59;11.32;;;6.57;;
35326;SDS011;21436;52.348;20.928;2022-09-23T07:03:36;10.48;;;7.70;;
35326;SDS011;21436;52.348;20.928;2022-09-23T07:06:05;11.63;;;7.22;;
35326;SDS011;21436;52.348;20.928;2022-09-23T07:08:34;10.38;;;7.22;;
35326;SDS011;21436;52.348;20.928;2022-09-23T07:11:05;12.85;;;6.93;;
35326;SDS011;21436;52.348;20.928;2022-09-23T07:13:33;10.80;;;7.43;;
35326;SDS011;21436;52.348;20.928;2022-09-23T07:16:04;12.20;;;7.03;;
35326;SDS011;21436;52.348;20.928;2022-09-23T07:18:33;13.57;;;7.40;;
35326;SDS011;21436;52.348;20.928;2022-09-23T07:21:07;11.75;;;7.30;;
35326;SDS011;21436;52.348;20.928;2022-09-23T07:23:42;13.52;;;7.90;;
35326;SDS011;21436;52.348;20.928;2022-09-23T07:28:43;9.27;;;7.18;;
35326;SDS011;21436;52.348;20.928;2022-09-23T07:31:12;8.40;;;6.47;;
35326;SDS011;21436;52.348;20.928;2022-09-23T07:36:25;9.82;;;6.63;;
35326;SDS011;21436;52.348;20.928;2022-09-23T07:38:54;9.85;;;6.40;;
35326;SDS011;21436;52.348;20.928;2022-09-23T07:41:29;10.55;;;6.57;;
35326;SDS011;21436;52.348;20.928;2022-09-23T07:43:58;9.63;;;6.10;;
35326;SDS011;21436;52.348;20.928;2022-09-23T07:46:29;8.50;;;6.72;;
35326;SDS011;21436;52.348;20.928;2022-09-23T07:48:58;10.20;;;6.30;;
35326;SDS011;21436;52.348;20.928;2022-09-23T07:51:29;10.93;;;6.20;;
35326;SDS011;21436;52.348;20.928;2022-09-23T07:54:08;10.15;;;6.40;;
35326;SDS011;21436;52.348;20.928;2022-09-23T07:56:38;9.60;;;5.68;;
35326;SDS011;21436;52.348;20.928;2022-09-23T07:59:07;9.07;;;6.20;;
35326;SDS011;21436;52.348;20.928;2022-09-23T08:01:39;14.55;;;6.28;;
35326;SDS011;21436;52.348;20.928;2022-09-23T08:06:55;8.05;;;5.00;;
35326;SDS011;21436;52.348;20.928;2022-09-23T08:09:26;9.45;;;5.70;;
35326;SDS011;21436;52.348;20.928;2022-09-23T08:11:58;9.25;;;6.03;;
35326;SDS011;21436;52.348;20.928;2022-09-23T08:14:27;7.38;;;5.00;;
35326;SDS011;21436;52.348;20.928;2022-09-23T08:16:55;10.43;;;5.03;;
35326;SDS011;21436;52.348;20.928;2022-09-23T08:19:24;9.35;;;5.78;;
35326;SDS011;21436;52.348;20.928;2022-09-23T08:21:52;6.75;;;5.53;;
35326;SDS011;21436;52.348;20.928;2022-09-23T08:24:20;7.00;;;5.32;;
35326;SDS011;21436;52.348;20.928;2022-09-23T08:26:52;7.45;;;5.50;;
35326;SDS011;21436;52.348;20.928;2022-09-23T08:29:21;7.03;;;5.35;;
35326;SDS011;21436;52.348;20.928;2022-09-23T08:31:50;6.13;;;4.55;;
35326;SDS011;21436;52.348;20.928;2022-09-23T08:34:19;7.75;;;4.80;;
35326;SDS011;21436;52.348;20.928;2022-09-23T08:36:49;9.50;;;4.72;;
35326;SDS011;21436;52.348;20.928;2022-09-23T08:39:19;7.43;;;4.32;;
35326;SDS011;21436;52.348;20.928;2022-09-23T08:45:13;7.05;;;4.38;;
35326;SDS011;21436;52.348;20.928;2022-09-23T08:47:29;4.20;;;3.00;;
35326;SDS011;21436;52.348;20.928;2022-09-23T08:52:38;2.47;;;1.70;;
35326;SDS011;21436;52.348;20.928;2022-09-23T08:55:11;2.20;;;1.40;;
35326;SDS011;21436;52.348;20.928;2022-09-23T08:57:59;2.17;;;1.30;;
35326;SDS011;21436;52.348;20.928;2022-09-23T09:01:03;1.45;;;1.25;;
35326;SDS011;21436;52.348;20.928;2022-09-23T09:03:57;0.65;;;0.60;;
35326;SDS011;21436;52.348;20.928;2022-09-23T09:06:28;1.88;;;0.70;;
35326;SDS011;21436;52.348;20.928;2022-09-23T09:09:23;2.10;;;1.10;;
35326;SDS011;21436;52.348;20.928;2022-09-23T09:12:14;1.02;;;0.85;;
35326;SDS011;21436;52.348;20.928;2022-09-23T09:15:10;0.75;;;0.70;;
35326;SDS011;21436;52.348;20.928;2022-09-23T09:17:57;0.95;;;0.70;;
35326;SDS011;21436;52.348;20.928;2022-09-23T09:34:44;1.90;;;0.70;;
35326;SDS011;21436;52.348;20.928;2022-09-23T09:40:14;1.40;;;1.05;;
35326;SDS011;21436;52.348;20.928;2022-09-23T09:42:48;1.50;;;1.13;;
35326;SDS011;21436;52.348;20.928;2022-09-23T09:50:49;1.83;;;1.10;;
35326;SDS011;21436;52.348;20.928;2022-09-23T09:53:20;1.20;;;0.90;;
35326;SDS011;21436;52.348;20.928;2022-09-23T09:56:00;1.30;;;1.20;;
35326;SDS011;21436;52.348;20.928;2022-09-23T09:58:36;2.67;;;1.30;;
35326;SDS011;21436;52.348;20.928;2022-09-23T10:01:18;1.45;;;1.20;;
35326;SDS011;21436;52.348;20.928;2022-09-23T10:03:58;2.08;;;1.38;;
35326;SDS011;21436;52.348;20.928;2022-09-23T10:06:29;1.40;;;1.00;;
35326;SDS011;21436;52.348;20.928;2022-09-23T10:09:13;2.42;;;1.30;;
35326;SDS011;21436;52.348;20.928;2022-09-23T10:14:35;1.60;;;1.50;;
35326;SDS011;21436;52.348;20.928;2022-09-23T10:17:05;2.40;;;1.33;;
35326;SDS011;21436;52.348;20.928;2022-09-23T10:19:34;3.25;;;1.48;;
35326;SDS011;21436;52.348;20.928;2022-09-23T10:22:04;1.10;;;1.00;;
35326;SDS011;21436;52.348;20.928;2022-09-23T10:24:36;2.08;;;1.52;;
35326;SDS011;21436;52.348;20.928;2022-09-23T10:27:09;2.70;;;1.53;;
35326;SDS011;21436;52.348;20.928;2022-09-23T10:29:48;2.22;;;1.48;;
35326;SDS011;21436;52.348;20.928;2022-09-23T10:35:15;1.70;;;1.45;;
35326;SDS011;21436;52.348;20.928;2022-09-23T10:40:26;1.90;;;1.40;;
35326;SDS011;21436;52.348;20.928;2022-09-23T10:46:28;2.13;;;1.35;;
35326;SDS011;21436;52.348;20.928;2022-09-23T10:52:20;1.40;;;0.88;;
35326;SDS011;21436;52.348;20.928;2022-09-23T11:00:56;3.50;;;1.20;;
35326;SDS011;21436;52.348;20.928;2022-09-23T11:03:41;1.75;;;1.13;;
35326;SDS011;21436;52.348;20.928;2022-09-23T11:06:28;2.63;;;1.23;;
35326;SDS011;21436;52.348;20.928;2022-09-23T11:17:26;2.08;;;1.30;;
35326;SDS011;21436;52.348;20.928;2022-09-23T11:20:23;1.00;;;0.80;;
35326;SDS011;21436;52.348;20.928;2022-09-23T11:36:45;1.10;;;1.00;;
35326;SDS011;21436;52.348;20.928;2022-09-23T11:39:19;1.13;;;0.90;;
35326;SDS011;21436;52.348;20.928;2022-09-23T11:41:53;1.50;;;0.93;;
35326;SDS011;21436;52.348;20.928;2022-09-23T11:44:25;1.83;;;1.05;;
35326;SDS011;21436;52.348;20.928;2022-09-23T11:47:03;2.17;;;1.23;;
35326;SDS011;21436;52.348;20.928;2022-09-23T11:49:38;1.55;;;1.40;;
35326;SDS011;21436;52.348;20.928;2022-09-23T11:54:54;2.15;;;1.10;;
35326;SDS011;21436;52.348;20.928;2022-09-23T11:57:48;3.08;;;0.95;;
35326;SDS011;21436;52.348;20.928;2022-09-23T12:00:24;0.88;;;0.63;;
35326;SDS011;21436;52.348;20.928;2022-09-23T12:06:14;3.58;;;1.38;;
35326;SDS011;21436;52.348;20.928;2022-09-23T12:08:48;3.58;;;0.98;;
35326;SDS011;21436;52.348;20.928;2022-09-23T12:14:06;1.17;;;0.90;;
35326;SDS011;21436;52.348;20.928;2022-09-23T12:27:54;2.15;;;0.90;;
35326;SDS011;21436;52.348;20.928;2022-09-23T12:30:29;1.67;;;0.80;;
35326;SDS011;21436;52.348;20.928;2022-09-23T12:33:06;3.67;;;1.88;;
35326;SDS011;21436;52.348;20.928;2022-09-23T12:35:38;0.93;;;0.80;;
35326;SDS011;21436;52.348;20.928;2022-09-23T12:38:33;1.15;;;0.77;;
35326;SDS011;21436;52.348;20.928;2022-09-23T12:41:01;1.38;;;0.90;;
35326;SDS011;21436;52.348;20.928;2022-09-23T12:43:34;0.77;;;0.70;;
35326;SDS011;21436;52.348;20.928;2022-09-23T12:51:32;3.78;;;1.30;;
35326;SDS011;21436;52.348;20.928;2022-09-23T13:01:38;1.83;;;0.88;;
35326;SDS011;21436;52.348;20.928;2022-09-23T13:07:25;1.08;;;0.90;;
35326;SDS011;21436;52.348;20.928;2022-09-23T13:10:09;1.20;;;0.90;;
35326;SDS011;21436;52.348;20.928;2022-09-23T13:12:42;1.25;;;0.65;;
35326;SDS011;21436;52.348;20.928;2022-09-23T13:18:22;1.10;;;0.90;;
35326;SDS011;21436;52.348;20.928;2022-09-23T13:20:52;1.33;;;0.88;;
35326;SDS011;21436;52.348;20.928;2022-09-23T13:23:28;1.27;;;0.98;;
35326;SDS011;21436;52.348;20.928;2022-09-23T13:26:03;1.05;;;0.93;;
35326;SDS011;21436;52.348;20.928;2022-09-23T13:28:52;1.08;;;0.70;;
35326;SDS011;21436;52.348;20.928;2022-09-23T13:31:22;2.85;;;0.85;;
35326;SDS011;21436;52.348;20.928;2022-09-23T13:33:53;2.47;;;0.95;;
35326;SDS011;21436;52.348;20.928;2022-09-23T13:36:23;2.27;;;0.83;;
35326;SDS011;21436;52.348;20.928;2022-09-23T13:38:51;1.73;;;0.80;;
35326;SDS011;21436;52.348;20.928;2022-09-23T13:41:20;2.00;;;0.90;;
35326;SDS011;21436;52.348;20.928;2022-09-23T13:43:56;3.45;;;0.82;;
35326;SDS011;21436;52.348;20.928;2022-09-23T13:46:45;1.67;;;0.80;;
35326;SDS011;21436;52.348;20.928;2022-09-23T13:49:20;0.95;;;0.85;;
35326;SDS011;21436;52.348;20.928;2022-09-23T13:51:51;2.35;;;0.82;;
35326;SDS011;21436;52.348;20.928;2022-09-23T13:55:03;1.83;;;0.80;;
35326;SDS011;21436;52.348;20.928;2022-09-23T13:57:24;1.00;;;0.68;;
35326;SDS011;21436;52.348;20.928;2022-09-23T14:00:00;0.70;;;0.70;;
35326;SDS011;21436;52.348;20.928;2022-09-23T14:02:43;1.20;;;0.88;;
35326;SDS011;21436;52.348;20.928;2022-09-23T14:05:19;2.22;;;0.90;;
35326;SDS011;21436;52.348;20.928;2022-09-23T14:07:50;1.23;;;0.65;;
35326;SDS011;21436;52.348;20.928;2022-09-23T14:10:19;2.15;;;1.23;;
35326;SDS011;21436;52.348;20.928;2022-09-23T14:12:50;2.20;;;0.75;;
35326;SDS011;21436;52.348;20.928;2022-09-23T14:15:20;1.45;;;1.10;;
35326;SDS011;21436;52.348;20.928;2022-09-23T14:17:50;2.80;;;1.10;;
35326;SDS011;21436;52.348;20.928;2022-09-23T14:20:28;2.55;;;1.10;;
35326;SDS011;21436;52.348;20.928;2022-09-23T14:23:04;1.80;;;1.00;;
35326;SDS011;21436;52.348;20.928;2022-09-23T14:25:33;1.92;;;1.35;;
35326;SDS011;21436;52.348;20.928;2022-09-23T14:28:02;3.63;;;1.33;;
35326;SDS011;21436;52.348;20.928;2022-09-23T14:30:31;1.10;;;1.00;;
35326;SDS011;21436;52.348;20.928;2022-09-23T14:32:59;2.00;;;1.05;;
35326;SDS011;21436;52.348;20.928;2022-09-23T14:35:38;2.45;;;1.08;;
35326;SDS011;21436;52.348;20.928;2022-09-23T14:38:09;1.23;;;1.00;;
35326;SDS011;21436;52.348;20.928;2022-09-23T14:40:56;2.40;;;1.25;;
35326;SDS011;21436;52.348;20.928;2022-09-23T14:43:48;1.73;;;1.30;;
35326;SDS011;21436;52.348;20.928;2022-09-23T14:46:28;1.23;;;1.08;;
35326;SDS011;21436;52.348;20.928;2022-09-23T14:51:34;1.40;;;1.10;;
35326;SDS011;21436;52.348;20.928;2022-09-23T14:54:40;1.33;;;1.00;;
35326;SDS011;21436;52.348;20.928;2022-09-23T15:00:18;2.47;;;1.20;;
35326;SDS011;21436;52.348;20.928;2022-09-23T15:03:00;1.42;;;1.10;;
35326;SDS011;21436;52.348;20.928;2022-09-23T15:05:38;1.38;;;1.25;;
35326;SDS011;21436;52.348;20.928;2022-09-23T15:08:09;12.73;;;1.75;;
35326;SDS011;21436;52.348;20.928;2022-09-23T15:13:16;3.63;;;1.23;;
35326;SDS011;21436;52.348;20.928;2022-09-23T15:15:46;1.33;;;1.10;;
35326;SDS011;21436;52.348;20.928;2022-09-23T15:20:51;3.65;;;1.60;;
35326;SDS011;21436;52.348;20.928;2022-09-23T15:23:34;2.22;;;1.27;;
35326;SDS011;21436;52.348;20.928;2022-09-23T15:28:42;3.05;;;1.08;;
35326;SDS011;21436;52.348;20.928;2022-09-23T15:31:11;2.20;;;1.13;;
35326;SDS011;21436;52.348;20.928;2022-09-23T15:33:40;2.75;;;1.58;;
35326;SDS011;21436;52.348;20.928;2022-09-23T15:39:06;1.70;;;0.90;;
35326;SDS011;21436;52.348;20.928;2022-09-23T15:41:37;3.53;;;1.25;;
35326;SDS011;21436;52.348;20.928;2022-09-23T15:44:12;2.22;;;1.33;;
35326;SDS011;21436;52.348;20.928;2022-09-23T15:46:44;2.65;;;1.35;;
35326;SDS011;21436;52.348;20.928;2022-09-23T15:51:58;3.58;;;1.35;;
35326;SDS011;21436;52.348;20.928;2022-09-23T15:54:28;1.85;;;1.17;;
35326;SDS011;21436;52.348;20.928;2022-09-23T15:56:56;2.47;;;1.42;;
35326;SDS011;21436;52.348;20.928;2022-09-23T15:59:25;2.50;;;1.27;;
35326;SDS011;21436;52.348;20.928;2022-09-23T16:01:53;2.58;;;1.70;;
35326;SDS011;21436;52.348;20.928;2022-09-23T16:04:23;2.22;;;1.23;;
35326;SDS011;21436;52.348;20.928;2022-09-23T16:06:53;2.28;;;1.40;;
35326;SDS011;21436;52.348;20.928;2022-09-23T16:09:21;3.38;;;1.75;;
35326;SDS011;21436;52.348;20.928;2022-09-23T16:11:49;4.03;;;2.00;;
35326;SDS011;21436;52.348;20.928;2022-09-23T16:14:19;3.45;;;1.85;;
35326;SDS011;21436;52.348;20.928;2022-09-23T16:16:48;3.70;;;1.85;;
35326;SDS011;21436;52.348;20.928;2022-09-23T16:19:16;3.17;;;1.90;;
35326;SDS011;21436;52.348;20.928;2022-09-23T16:21:46;4.45;;;2.00;;
35326;SDS011;21436;52.348;20.928;2022-09-23T16:24:16;3.70;;;1.80;;
35326;SDS011;21436;52.348;20.928;2022-09-23T16:26:46;2.47;;;1.60;;
35326;SDS011;21436;52.348;20.928;2022-09-23T16:29:15;6.32;;;2.80;;
35326;SDS011;21436;52.348;20.928;2022-09-23T16:31:43;3.17;;;1.95;;
35326;SDS011;21436;52.348;20.928;2022-09-23T16:34:11;11.55;;;2.38;;
35326;SDS011;21436;52.348;20.928;2022-09-23T16:36:41;5.22;;;2.30;;
35326;SDS011;21436;52.348;20.928;2022-09-23T16:39:10;5.43;;;2.03;;
35326;SDS011;21436;52.348;20.928;2022-09-23T16:41:41;16.77;;;2.70;;
35326;SDS011;21436;52.348;20.928;2022-09-23T16:44:10;47.30;;;3.80;;
35326;SDS011;21436;52.348;20.928;2022-09-23T16:46:43;10.45;;;2.65;;
35326;SDS011;21436;52.348;20.928;2022-09-23T16:49:13;5.72;;;2.33;;
35326;SDS011;21436;52.348;20.928;2022-09-23T16:51:42;6.32;;;2.40;;
35326;SDS011;21436;52.348;20.928;2022-09-23T16:54:11;4.50;;;2.70;;
35326;SDS011;21436;52.348;20.928;2022-09-23T16:56:41;2.90;;;1.98;;
35326;SDS011;21436;52.348;20.928;2022-09-23T16:59:12;8.75;;;2.50;;
35326;SDS011;21436;52.348;20.928;2022-09-23T17:01:41;9.63;;;2.42;;
35326;SDS011;21436;52.348;20.928;2022-09-23T17:04:29;5.85;;;2.60;;
35326;SDS011;21436;52.348;20.928;2022-09-23T17:06:57;4.88;;;2.42;;
35326;SDS011;21436;52.348;20.928;2022-09-23T17:09:26;6.93;;;2.50;;
35326;SDS011;21436;52.348;20.928;2022-09-23T17:12:12;6.22;;;2.47;;
35326;SDS011;21436;52.348;20.928;2022-09-23T17:14:46;5.60;;;2.50;;
35326;SDS011;21436;52.348;20.928;2022-09-23T17:17:14;15.82;;;2.67;;
35326;SDS011;21436;52.348;20.928;2022-09-23T17:19:42;4.60;;;2.92;;
35326;SDS011;21436;52.348;20.928;2022-09-23T17:22:11;13.27;;;3.58;;
35326;SDS011;21436;52.348;20.928;2022-09-23T17:24:43;10.00;;;3.50;;
35326;SDS011;21436;52.348;20.928;2022-09-23T17:27:12;12.35;;;3.40;;
35326;SDS011;21436;52.348;20.928;2022-09-23T17:29:42;9.52;;;3.50;;
35326;SDS011;21436;52.348;20.928;2022-09-23T17:32:11;11.18;;;2.80;;
35326;SDS011;21436;52.348;20.928;2022-09-23T17:34:39;29.20;;;5.00;;
35326;SDS011;21436;52.348;20.928;2022-09-23T17:37:10;11.63;;;3.80;;
35326;SDS011;21436;52.348;20.928;2022-09-23T17:39:39;15.70;;;4.63;;
35326;SDS011;21436;52.348;20.928;2022-09-23T17:42:10;41.50;;;5.72;;
35326;SDS011;21436;52.348;20.928;2022-09-23T17:44:38;39.40;;;6.03;;
35326;SDS011;21436;52.348;20.928;2022-09-23T17:47:08;27.77;;;6.93;;
35326;SDS011;21436;52.348;20.928;2022-09-23T17:49:35;18.92;;;7.20;;
35326;SDS011;21436;52.348;20.928;2022-09-23T17:52:03;17.70;;;4.78;;
35326;SDS011;21436;52.348;20.928;2022-09-23T17:54:32;9.68;;;5.00;;
35326;SDS011;21436;52.348;20.928;2022-09-23T17:57:02;10.43;;;4.90;;
35326;SDS011;21436;52.348;20.928;2022-09-23T17:59:30;7.65;;;4.63;;
35326;SDS011;21436;52.348;20.928;2022-09-23T18:01:59;7.30;;;4.00;;
35326;SDS011;21436;52.348;20.928;2022-09-23T18:04:28;8.93;;;3.95;;
35326;SDS011;21436;52.348;20.928;2022-09-23T18:06:55;11.88;;;4.35;;
35326;SDS011;21436;52.348;20.928;2022-09-23T18:09:24;6.68;;;4.00;;
35326;SDS011;21436;52.348;20.928;2022-09-23T18:11:52;10.77;;;4.57;;
35326;SDS011;21436;52.348;20.928;2022-09-23T18:14:21;10.00;;;5.03;;
35326;SDS011;21436;52.348;20.928;2022-09-23T18:16:51;10.15;;;4.90;;